sensor_id;sensor_type;location;lat;lon;timestamp;pressure;altitude;pressure_sealevel;temperature;humidity
7748;BME280;3918;42.564;23.164;2023-01-30T06:03:34;-11650.84;;;-142.29;100.00
7748;BME280;3918;42.564;23.164;2023-01-30T06:06:02;-11650.84;;;-142.29;100.00
7748;BME280;3918;42.564;23.164;2023-01-30T06:08:29;-11650.84;;;-142.29;100.00
7748;BME280;3918;42.564;23.164;2023-01-30T06:10:58;-11650.84;;;-142.29;100.00
7748;BME280;3918;42.564;23.164;2023-01-30T06:13:25;-11650.84;;;-142.29;100.00
7748;BME280;3918;42.564;23.164;2023-01-30T06:15:52;-11650.84;;;-142.29;100.00
7748;BME280;3918;42.564;23.164;2023-01-30T06:18:19;-11650.84;;;-142.29;100.00
7748;BME280;3918;42.564;23.164;2023-01-30T06:20:48;-11650.84;;;-142.29;100.00
7748;BME280;3918;42.564;23.164;2023-01-30T06:23:15;-11650.84;;;-142.29;100.00
7748;BME280;3918;42.564;23.164;2023-01-30T06:25:42;-11650.84;;;-142.29;100.00
7748;BME280;3918;42.564;23.164;2023-01-30T06:28:09;-11650.84;;;-142.29;100.00
7748;BME280;3918;42.564;23.164;2023-01-30T06:30:36;-11650.84;;;-142.29;100.00
7748;BME280;3918;42.564;23.164;2023-01-30T06:33:03;-11650.84;;;-142.29;100.00
7748;BME280;3918;42.564;23.164;2023-01-30T06:35:29;-11650.84;;;-142.29;100.00
7748;BME280;3918;42.564;23.164;2023-01-30T06:37:58;-11650.84;;;-142.29;100.00
7748;BME280;3918;42.564;23.164;2023-01-30T06:40:25;-11650.84;;;-142.29;100.00
7748;BME280;3918;42.564;23.164;2023-01-30T06:42:51;-11650.84;;;-142.29;100.00
7748;BME280;3918;42.564;23.164;2023-01-30T06:45:18;-11650.84;;;-142.29;100.00
7748;BME280;3918;42.564;23.164;2023-01-30T06:47:45;-11650.84;;;-142.29;100.00
7748;BME280;3918;42.564;23.164;2023-01-30T06:50:13;-11650.84;;;-142.29;100.00
7748;BME280;3918;42.564;23.164;2023-01-30T06:52:40;-11650.84;;;-142.29;100.00
7748;BME280;3918;42.564;23.164;2023-01-30T06:55:10;-11650.84;;;-142.29;100.00
7748;BME280;3918;42.564;23.164;2023-01-30T06:57:37;-11650.84;;;-142.29;100.00
7748;BME280;3918;42.564;23.164;2023-01-30T07:00:06;-11650.84;;;-142.29;100.00
7748;BME280;3918;42.564;23.164;2023-01-30T07:02:33;-11650.84;;;-142.29;100.00
7748;BME280;3918;42.564;23.164;2023-01-30T07:05:00;-11650.84;;;-142.29;100.00
7748;BME280;3918;42.564;23.164;2023-01-30T07:07:28;-11650.84;;;-142.29;100.00
7748;BME280;3918;42.564;23.164;2023-01-30T07:09:55;-11650.84;;;-142.29;100.00
7748;BME280;3918;42.564;23.164;2023-01-30T07:12:24;-11650.84;;;-142.29;100.00
7748;BME280;3918;42.564;23.164;2023-01-30T07:14:51;-11650.84;;;-142.29;100.00
7748;BME280;3918;42.564;23.164;2023-01-30T07:17:18;-11650.84;;;-142.29;100.00
7748;BME280;3918;42.564;23.164;2023-01-30T07:19:45;-11650.84;;;-142.29;100.00
7748;BME280;3918;42.564;23.164;2023-01-30T07:22:12;-11650.84;;;-142.29;100.00
7748;BME280;3918;42.564;23.164;2023-01-30T07:24:39;-11650.84;;;-142.29;100.00
7748;BME280;3918;42.564;23.164;2023-01-30T07:27:07;-11650.84;;;-142.29;100.00
7748;BME280;3918;42.564;23.164;2023-01-30T07:29:37;-11650.84;;;-142.29;100.00
7748;BME280;3918;42.564;23.164;2023-01-30T07:32:05;-11650.84;;;-142.29;100.00
7748;BME280;3918;42.564;23.164;2023-01-30T07:34:32;-11650.84;;;-142.29;100.00
7748;BME280;3918;42.564;23.164;2023-01-30T07:36:59;-11650.84;;;-142.29;100.00
7748;BME280;3918;42.564;23.164;2023-01-30T07:39:25;-11650.84;;;-142.29;100.00
7748;BME280;3918;42.564;23.164;2023-01-30T07:41:52;-11650.84;;;-142.29;100.00
7748;BME280;3918;42.564;23.164;2023-01-30T07:44:19;-11650.84;;;-142.29;100.00
7748;BME280;3918;42.564;23.164;2023-01-30T07:46:47;-11650.84;;;-142.29;100.00
7748;BME280;3918;42.564;23.164;2023-01-30T07:49:14;-11650.84;;;-142.29;100.00
7748;BME280;3918;42.564;23.164;2023-01-30T07:51:40;-11650.84;;;-142.29;100.00
7748;BME280;3918;42.564;23.164;2023-01-30T07:54:07;-11650.84;;;-142.29;100.00
7748;BME280;3918;42.564;23.164;2023-01-30T07:56:34;-11650.84;;;-142.29;100.00
7748;BME280;3918;42.564;23.164;2023-01-30T07:59:01;-11650.84;;;-142.29;100.00
7748;BME280;3918;42.564;23.164;2023-01-30T08:01:30;-11650.84;;;-142.29;100.00
7748;BME280;3918;42.564;23.164;2023-01-30T08:03:58;-11650.84;;;-142.29;100.00
7748;BME280;3918;42.564;23.164;2023-01-30T08:06:24;-11650.84;;;-142.29;100.00
7748;BME280;3918;42.564;23.164;2023-01-30T08:08:51;-11650.84;;;-142.29;100.00
7748;BME280;3918;42.564;23.164;2023-01-30T08:11:18;-11650.84;;;-142.29;100.00
7748;BME280;3918;42.564;23.164;2023-01-30T08:13:45;-11650.84;;;-142.29;100.00
7748;BME280;3918;42.564;23.164;2023-01-30T08:16:12;-11650.84;;;-142.29;100.00
7748;BME280;3918;42.564;23.164;2023-01-30T08:18:38;-11650.84;;;-142.29;100.00
7748;BME280;3918;42.564;23.164;2023-01-30T08:21:06;-11650.84;;;-142.29;100.00
7748;BME280;3918;42.564;23.164;2023-01-30T08:23:34;-11650.84;;;-142.29;100.00
7748;BME280;3918;42.564;23.164;2023-01-30T08:26:02;-11650.84;;;-142.29;100.00
7748;BME280;3918;42.564;23.164;2023-01-30T08:28:29;-11650.84;;;-142.29;100.00
7748;BME280;3918;42.564;23.164;2023-01-30T08:30:56;-11650.84;;;-142.29;100.00
7748;BME280;3918;42.564;23.164;2023-01-30T08:33:24;-11650.84;;;-142.29;100.00
7748;BME280;3918;42.564;23.164;2023-01-30T08:35:50;-11650.84;;;-142.29;100.00
7748;BME280;3918;42.564;23.164;2023-01-30T08:38:18;-11650.84;;;-142.29;100.00
7748;BME280;3918;42.564;23.164;2023-01-30T08:40:45;-11650.84;;;-142.29;100.00
7748;BME280;3918;42.564;23.164;2023-01-30T08:43:12;-11650.84;;;-142.29;100.00
7748;BME280;3918;42.564;23.164;2023-01-30T08:45:39;-11650.84;;;-142.29;100.00
7748;BME280;3918;42.564;23.164;2023-01-30T08:48:06;-11650.84;;;-142.29;100.00
7748;BME280;3918;42.564;23.164;2023-01-30T08:50:33;-11650.84;;;-142.29;100.00
7748;BME280;3918;42.564;23.164;2023-01-30T08:53:03;-11650.84;;;-142.29;100.00
7748;BME280;3918;42.564;23.164;2023-01-30T08:55:32;-11650.84;;;-142.29;100.00
7748;BME280;3918;42.564;23.164;2023-01-30T08:57:59;-11650.84;;;-142.29;100.00
7748;BME280;3918;42.564;23.164;2023-01-30T09:00:26;-11650.84;;;-142.29;100.00
7748;BME280;3918;42.564;23.164;2023-01-30T09:02:52;-11650.84;;;-142.29;100.00
7748;BME280;3918;42.564;23.164;2023-01-30T09:05:19;-11650.84;;;-142.29;100.00
7748;BME280;3918;42.564;23.164;2023-01-30T09:07:46;-11650.84;;;-142.29;100.00
7748;BME280;3918;42.564;23.164;2023-01-30T09:10:13;-11650.84;;;-142.29;100.00
7748;BME280;3918;42.564;23.164;2023-01-30T09:12:41;-11650.84;;;-142.29;100.00
7748;BME280;3918;42.564;23.164;2023-01-30T09:15:09;-11650.84;;;-142.29;100.00
7748;BME280;3918;42.564;23.164;2023-01-30T09:17:36;-11650.84;;;-142.29;100.00
7748;BME280;3918;42.564;23.164;2023-01-30T09:20:04;-11650.84;;;-142.29;100.00
7748;BME280;3918;42.564;23.164;2023-01-30T09:22:31;-11650.84;;;-142.29;100.00
7748;BME280;3918;42.564;23.164;2023-01-30T09:24:58;-11650.84;;;-142.29;100.00
7748;BME280;3918;42.564;23.164;2023-01-30T09:27:25;-11650.84;;;-142.29;100.00
7748;BME280;3918;42.564;23.164;2023-01-30T09:29:53;-11650.84;;;-142.29;100.00
7748;BME280;3918;42.564;23.164;2023-01-30T09:32:20;-11650.84;;;-142.29;100.00
7748;BME280;3918;42.564;23.164;2023-01-30T09:34:47;-11650.84;;;-142.29;100.00
7748;BME280;3918;42.564;23.164;2023-01-30T09:37:14;-11650.84;;;-142.29;100.00
7748;BME280;3918;42.564;23.164;2023-01-30T09:39:40;-11650.84;;;-142.29;100.00
7748;BME280;3918;42.564;23.164;2023-01-30T09:42:32;-11650.84;;;-142.29;100.00
7748;BME280;3918;42.564;23.164;2023-01-30T09:48:05;-11650.84;;;-142.29;100.00
7748;BME280;3918;42.564;23.164;2023-01-30T09:50:46;-11650.84;;;-142.29;100.00
7748;BME280;3918;42.564;23.164;2023-01-30T09:53:20;-11650.84;;;-142.29;100.00
7748;BME280;3918;42.564;23.164;2023-01-30T09:55:50;-11650.84;;;-142.29;100.00
7748;BME280;3918;42.564;23.164;2023-01-30T09:58:19;-11650.84;;;-142.29;100.00
7748;BME280;3918;42.564;23.164;2023-01-30T10:00:51;-11650.84;;;-142.29;100.00
7748;BME280;3918;42.564;23.164;2023-01-30T10:03:19;-11650.84;;;-142.29;100.00
7748;BME280;3918;42.564;23.164;2023-01-30T10:05:52;-11650.84;;;-142.29;100.00
7748;BME280;3918;42.564;23.164;2023-01-30T10:08:39;-11650.84;;;-142.29;100.00
7748;BME280;3918;42.564;23.164;2023-01-30T10:11:16;-11650.84;;;-142.29;100.00
7748;BME280;3918;42.564;23.164;2023-01-30T10:13:58;-11650.84;;;-142.29;100.00
7748;BME280;3918;42.564;23.164;2023-01-30T10:16:33;-11650.84;;;-142.29;100.00
7748;BME280;3918;42.564;23.164;2023-01-30T10:19:22;-11650.84;;;-142.29;100.00
7748;BME280;3918;42.564;23.164;2023-01-30T10:21:56;-11650.84;;;-142.29;100.00
7748;BME280;3918;42.564;23.164;2023-01-30T10:24:42;-11650.84;;;-142.29;100.00
7748;BME280;3918;42.564;23.164;2023-01-30T10:27:15;-11650.84;;;-142.29;100.00
7748;BME280;3918;42.564;23.164;2023-01-30T10:29:44;-11650.84;;;-142.29;100.00
7748;BME280;3918;42.564;23.164;2023-01-30T10:32:17;-11650.84;;;-142.29;95.10
7748;BME280;3918;42.564;23.164;2023-01-30T10:34:47;-11650.84;;;-142.29;98.17
7748;BME280;3918;42.564;23.164;2023-01-30T10:37:21;-11650.84;;;-142.29;100.00
7748;BME280;3918;42.564;23.164;2023-01-30T10:39:54;-11650.84;;;-142.29;100.00
7748;BME280;3918;42.564;23.164;2023-01-30T10:42:28;-11650.84;;;-142.29;100.00
7748;BME280;3918;42.564;23.164;2023-01-30T10:45:04;-11650.84;;;-142.29;100.00
7748;BME280;3918;42.564;23.164;2023-01-30T10:47:42;-11650.84;;;-142.29;100.00
7748;BME280;3918;42.564;23.164;2023-01-30T10:50:15;-11650.84;;;-142.29;100.00
7748;BME280;3918;42.564;23.164;2023-01-30T10:52:48;-11650.84;;;-142.29;100.00
7748;BME280;3918;42.564;23.164;2023-01-30T10:55:25;-11650.84;;;-142.29;100.00
7748;BME280;3918;42.564;23.164;2023-01-30T10:58:00;-11650.84;;;-142.29;100.00
7748;BME280;3918;42.564;23.164;2023-01-30T11:00:33;-11650.84;;;-142.29;100.00
7748;BME280;3918;42.564;23.164;2023-01-30T11:03:20;-11650.84;;;-142.29;100.00
7748;BME280;3918;42.564;23.164;2023-01-30T11:05:50;-11650.84;;;-142.29;99.71
7748;BME280;3918;42.564;23.164;2023-01-30T11:08:22;-11650.84;;;-142.29;100.00
7748;BME280;3918;42.564;23.164;2023-01-30T11:10:51;-11650.84;;;-142.29;89.23
7748;BME280;3918;42.564;23.164;2023-01-30T11:13:20;-11650.84;;;-142.29;85.46
7748;BME280;3918;42.564;23.164;2023-01-30T11:15:50;-11650.84;;;-142.29;82.51
7748;BME280;3918;42.564;23.164;2023-01-30T11:18:20;-11650.84;;;-142.29;86.48
7748;BME280;3918;42.564;23.164;2023-01-30T11:20:59;-11650.84;;;-142.29;93.41
7748;BME280;3918;42.564;23.164;2023-01-30T11:23:31;-11650.84;;;-142.29;96.97
7748;BME280;3918;42.564;23.164;2023-01-30T11:26:00;-11650.84;;;-142.29;100.00
7748;BME280;3918;42.564;23.164;2023-01-30T11:28:33;-11650.84;;;-142.29;100.00
7748;BME280;3918;42.564;23.164;2023-01-30T11:31:01;-11650.84;;;-142.29;100.00
7748;BME280;3918;42.564;23.164;2023-01-30T11:33:32;-11650.84;;;-142.29;100.00
7748;BME280;3918;42.564;23.164;2023-01-30T11:36:01;-11650.84;;;-142.29;100.00
7748;BME280;3918;42.564;23.164;2023-01-30T11:38:29;-11650.84;;;-142.29;97.84
7748;BME280;3918;42.564;23.164;2023-01-30T11:41:16;-11650.84;;;-142.29;100.00
7748;BME280;3918;42.564;23.164;2023-01-30T11:43:44;-11650.84;;;-142.29;100.00
7748;BME280;3918;42.564;23.164;2023-01-30T11:46:14;-11650.84;;;-142.29;100.00
7748;BME280;3918;42.564;23.164;2023-01-30T11:48:48;-11650.84;;;-142.29;100.00
7748;BME280;3918;42.564;23.164;2023-01-30T11:51:18;-11650.84;;;-142.29;100.00
7748;BME280;3918;42.564;23.164;2023-01-30T11:53:47;-11650.84;;;-142.29;100.00
7748;BME280;3918;42.564;23.164;2023-01-30T11:56:22;-11650.84;;;-142.29;98.60
7748;BME280;3918;42.564;23.164;2023-01-30T11:58:54;-11650.84;;;-142.29;89.29
7748;BME280;3918;42.564;23.164;2023-01-30T12:01:25;-11650.84;;;-142.29;88.14
7748;BME280;3918;42.564;23.164;2023-01-30T12:03:55;-11650.84;;;-142.29;87.89
7748;BME280;3918;42.564;23.164;2023-01-30T12:06:27;-11650.84;;;-142.29;89.38
7748;BME280;3918;42.564;23.164;2023-01-30T12:08:55;-11650.84;;;-142.29;83.00
7748;BME280;3918;42.564;23.164;2023-01-30T12:11:31;-11650.84;;;-142.29;84.13
7748;BME280;3918;42.564;23.164;2023-01-30T12:14:25;-11650.84;;;-142.29;83.35
7748;BME280;3918;42.564;23.164;2023-01-30T12:17:04;-11650.84;;;-142.29;84.00
7748;BME280;3918;42.564;23.164;2023-01-30T12:19:45;-11650.84;;;-142.29;83.93
7748;BME280;3918;42.564;23.164;2023-01-30T12:22:21;-11650.84;;;-142.29;85.89
7748;BME280;3918;42.564;23.164;2023-01-30T12:24:57;-11650.84;;;-142.29;89.22
7748;BME280;3918;42.564;23.164;2023-01-30T12:27:30;-11650.84;;;-142.29;100.00
7748;BME280;3918;42.564;23.164;2023-01-30T12:30:04;-11650.84;;;-142.29;100.00
7748;BME280;3918;42.564;23.164;2023-01-30T12:32:33;-11650.84;;;-142.29;100.00
7748;BME280;3918;42.564;23.164;2023-01-30T12:35:13;-11650.84;;;-142.29;100.00
7748;BME280;3918;42.564;23.164;2023-01-30T12:37:49;-11650.84;;;-142.29;100.00
7748;BME280;3918;42.564;23.164;2023-01-30T12:40:27;-11650.84;;;-142.29;100.00
7748;BME280;3918;42.564;23.164;2023-01-30T12:43:08;-11650.84;;;-142.29;100.00
7748;BME280;3918;42.564;23.164;2023-01-30T12:45:44;-11650.84;;;-142.29;100.00
7748;BME280;3918;42.564;23.164;2023-01-30T12:48:43;-11650.84;;;-142.29;100.00
7748;BME280;3918;42.564;23.164;2023-01-30T12:51:21;-11650.84;;;-142.29;100.00
7748;BME280;3918;42.564;23.164;2023-01-30T12:54:03;-11650.84;;;-142.29;100.00
7748;BME280;3918;42.564;23.164;2023-01-30T12:56:43;-11650.84;;;-142.29;100.00
7748;BME280;3918;42.564;23.164;2023-01-30T12:59:19;-11650.84;;;-142.29;100.00
7748;BME280;3918;42.564;23.164;2023-01-30T13:01:57;-11650.84;;;-142.29;100.00
7748;BME280;3918;42.564;23.164;2023-01-30T13:04:40;-11650.84;;;-142.29;100.00
7748;BME280;3918;42.564;23.164;2023-01-30T13:07:17;-11650.84;;;-142.29;100.00
7748;BME280;3918;42.564;23.164;2023-01-30T13:09:58;-11650.84;;;-142.29;100.00
7748;BME280;3918;42.564;23.164;2023-01-30T13:12:33;-11650.84;;;-142.29;96.38
7748;BME280;3918;42.564;23.164;2023-01-30T13:15:13;-11650.84;;;-142.29;99.06
7748;BME280;3918;42.564;23.164;2023-01-30T13:17:52;-11650.84;;;-142.29;95.65
7748;BME280;3918;42.564;23.164;2023-01-30T13:20:38;-11650.84;;;-142.29;91.39
7748;BME280;3918;42.564;23.164;2023-01-30T13:23:13;-11650.84;;;-142.29;89.80
7748;BME280;3918;42.564;23.164;2023-01-30T13:25:46;-11650.84;;;-142.29;89.50
7748;BME280;3918;42.564;23.164;2023-01-30T13:28:19;-11650.84;;;-142.29;88.03
7748;BME280;3918;42.564;23.164;2023-01-30T13:30:50;-11650.84;;;-142.29;87.66
7748;BME280;3918;42.564;23.164;2023-01-30T13:33:20;-11650.84;;;-142.29;89.47
7748;BME280;3918;42.564;23.164;2023-01-30T13:35:50;-11650.84;;;-142.29;90.87
7748;BME280;3918;42.564;23.164;2023-01-30T13:38:24;-11650.84;;;-142.29;90.18
7748;BME280;3918;42.564;23.164;2023-01-30T13:40:55;-11650.84;;;-142.29;91.33
7748;BME280;3918;42.564;23.164;2023-01-30T13:43:26;-11650.84;;;-142.29;98.56
7748;BME280;3918;42.564;23.164;2023-01-30T13:45:56;-11650.84;;;-142.29;97.48
7748;BME280;3918;42.564;23.164;2023-01-30T13:48:40;-11650.84;;;-142.29;100.00
7748;BME280;3918;42.564;23.164;2023-01-30T13:51:21;-11650.84;;;-142.29;100.00
7748;BME280;3918;42.564;23.164;2023-01-30T13:53:55;-11650.84;;;-142.29;100.00
7748;BME280;3918;42.564;23.164;2023-01-30T13:56:29;-11650.84;;;-142.29;100.00
7748;BME280;3918;42.564;23.164;2023-01-30T13:59:02;-11650.84;;;-142.29;100.00
7748;BME280;3918;42.564;23.164;2023-01-30T14:04:47;-11650.84;;;-142.29;100.00
7748;BME280;3918;42.564;23.164;2023-01-30T14:07:18;-11650.84;;;-142.29;100.00
7748;BME280;3918;42.564;23.164;2023-01-30T14:09:50;-11650.84;;;-142.29;100.00
7748;BME280;3918;42.564;23.164;2023-01-30T14:12:21;-11650.84;;;-142.29;100.00
7748;BME280;3918;42.564;23.164;2023-01-30T14:15:00;-11650.84;;;-142.29;100.00
7748;BME280;3918;42.564;23.164;2023-01-30T14:17:28;-11650.84;;;-142.29;100.00
7748;BME280;3918;42.564;23.164;2023-01-30T14:20:00;-11650.84;;;-142.29;100.00
7748;BME280;3918;42.564;23.164;2023-01-30T14:22:38;-11650.84;;;-142.29;100.00
7748;BME280;3918;42.564;23.164;2023-01-30T14:25:34;-11650.84;;;-142.29;90.07
7748;BME280;3918;42.564;23.164;2023-01-30T14:31:50;-11650.84;;;-142.29;89.40
7748;BME280;3918;42.564;23.164;2023-01-30T14:34:45;-11650.84;;;-142.29;95.44
7748;BME280;3918;42.564;23.164;2023-01-30T14:37:45;-11650.84;;;-142.29;100.00
7748;BME280;3918;42.564;23.164;2023-01-30T14:40:30;-11650.84;;;-142.29;100.00
7748;BME280;3918;42.564;23.164;2023-01-30T14:46:11;-11650.84;;;-142.29;100.00
7748;BME280;3918;42.564;23.164;2023-01-30T14:49:02;-11650.84;;;-142.29;100.00
7748;BME280;3918;42.564;23.164;2023-01-30T14:51:33;-11650.84;;;-142.29;100.00
7748;BME280;3918;42.564;23.164;2023-01-30T14:54:05;-11650.84;;;-142.29;100.00
7748;BME280;3918;42.564;23.164;2023-01-30T14:56:41;-11650.84;;;-142.29;100.00
7748;BME280;3918;42.564;23.164;2023-01-30T14:59:19;-11650.84;;;-142.29;100.00
7748;BME280;3918;42.564;23.164;2023-01-30T15:02:00;-11650.84;;;-142.29;100.00
7748;BME280;3918;42.564;23.164;2023-01-30T15:04:30;-11650.84;;;-142.29;100.00
7748;BME280;3918;42.564;23.164;2023-01-30T15:06:59;-11650.84;;;-142.29;100.00
7748;BME280;3918;42.564;23.164;2023-01-30T15:09:31;-11650.84;;;-142.29;100.00
7748;BME280;3918;42.564;23.164;2023-01-30T15:12:10;-11650.84;;;-142.29;100.00
7748;BME280;3918;42.564;23.164;2023-01-30T15:14:47;-11650.84;;;-142.29;100.00
7748;BME280;3918;42.564;23.164;2023-01-30T15:17:26;-11650.84;;;-142.29;100.00
7748;BME280;3918;42.564;23.164;2023-01-30T15:20:19;-11650.84;;;-142.29;100.00
7748;BME280;3918;42.564;23.164;2023-01-30T15:23:07;-11650.84;;;-142.29;100.00
7748;BME280;3918;42.564;23.164;2023-01-30T15:25:46;-11650.84;;;-142.29;100.00
7748;BME280;3918;42.564;23.164;2023-01-30T15:28:29;-11650.84;;;-142.29;100.00
7748;BME280;3918;42.564;23.164;2023-01-30T15:31:08;-11650.84;;;-142.29;100.00
7748;BME280;3918;42.564;23.164;2023-01-30T15:33:44;-11650.84;;;-142.29;100.00
7748;BME280;3918;42.564;23.164;2023-01-30T15:36:35;-11650.84;;;-142.29;100.00
7748;BME280;3918;42.564;23.164;2023-01-30T15:39:04;-11650.84;;;-142.29;100.00
7748;BME280;3918;42.564;23.164;2023-01-30T15:41:35;-11650.84;;;-142.29;100.00
7748;BME280;3918;42.564;23.164;2023-01-30T15:44:32;-11650.84;;;-142.29;100.00
7748;BME280;3918;42.564;23.164;2023-01-30T15:49:58;-11650.84;;;-142.29;100.00
7748;BME280;3918;42.564;23.164;2023-01-30T15:52:35;-11650.84;;;-142.29;100.00
7748;BME280;3918;42.564;23.164;2023-01-30T15:55:05;-11650.84;;;-142.29;100.00
7748;BME280;3918;42.564;23.164;2023-01-30T15:57:36;-11650.84;;;-142.29;100.00
7748;BME280;3918;42.564;23.164;2023-01-30T16:00:06;-11650.84;;;-142.29;100.00
7748;BME280;3918;42.564;23.164;2023-01-30T16:02:34;-11650.84;;;-142.29;100.00
7748;BME280;3918;42.564;23.164;2023-01-30T16:05:08;-11650.84;;;-142.29;100.00
7748;BME280;3918;42.564;23.164;2023-01-30T16:07:38;-11650.84;;;-142.29;100.00
7748;BME280;3918;42.564;23.164;2023-01-30T16:10:11;-11650.84;;;-142.29;100.00
7748;BME280;3918;42.564;23.164;2023-01-30T16:12:38;-11650.84;;;-142.29;100.00
7748;BME280;3918;42.564;23.164;2023-01-30T16:15:11;-11650.84;;;-142.29;100.00
7748;BME280;3918;42.564;23.164;2023-01-30T16:17:38;-11650.84;;;-142.29;100.00
7748;BME280;3918;42.564;23.164;2023-01-30T16:20:11;-11650.84;;;-142.29;100.00
7748;BME280;3918;42.564;23.164;2023-01-30T16:22:42;-11650.84;;;-142.29;100.00
7748;BME280;3918;42.564;23.164;2023-01-30T16:25:18;-11650.84;;;-142.29;100.00
7748;BME280;3918;42.564;23.164;2023-01-30T16:27:47;-11650.84;;;-142.29;100.00
7748;BME280;3918;42.564;23.164;2023-01-30T16:30:21;-11650.84;;;-142.29;100.00
7748;BME280;3918;42.564;23.164;2023-01-30T16:32:50;-11650.84;;;-142.29;100.00
7748;BME280;3918;42.564;23.164;2023-01-30T16:35:28;-11650.84;;;-142.29;100.00
7748;BME280;3918;42.564;23.164;2023-01-30T16:37:58;-11650.84;;;-142.29;100.00
7748;BME280;3918;42.564;23.164;2023-01-30T16:40:26;-11650.84;;;-142.29;100.00
7748;BME280;3918;42.564;23.164;2023-01-30T16:42:57;-11650.84;;;-142.29;100.00
7748;BME280;3918;42.564;23.164;2023-01-30T16:48:29;-11650.84;;;-142.29;100.00
7748;BME280;3918;42.564;23.164;2023-01-30T16:51:17;-11650.84;;;-142.29;100.00
7748;BME280;3918;42.564;23.164;2023-01-30T16:53:51;-11650.84;;;-142.29;100.00
7748;BME280;3918;42.564;23.164;2023-01-30T16:56:21;-11650.84;;;-142.29;100.00
7748;BME280;3918;42.564;23.164;2023-01-30T16:58:50;-11650.84;;;-142.29;100.00
7748;BME280;3918;42.564;23.164;2023-01-30T17:01:17;-11650.84;;;-142.29;100.00
7748;BME280;3918;42.564;23.164;2023-01-30T17:03:49;-11650.84;;;-142.29;100.00
7748;BME280;3918;42.564;23.164;2023-01-30T17:06:24;-11650.84;;;-142.29;100.00
7748;BME280;3918;42.564;23.164;2023-01-30T17:08:55;-11650.84;;;-142.29;100.00
7748;BME280;3918;42.564;23.164;2023-01-30T17:11:34;-11650.84;;;-142.29;100.00
7748;BME280;3918;42.564;23.164;2023-01-30T17:14:13;-11650.84;;;-142.29;100.00
7748;BME280;3918;42.564;23.164;2023-01-30T17:16:41;-11650.84;;;-142.29;100.00
7748;BME280;3918;42.564;23.164;2023-01-30T17:19:11;-11650.84;;;-142.29;100.00
7748;BME280;3918;42.564;23.164;2023-01-30T17:21:45;-11650.84;;;-142.29;100.00
7748;BME280;3918;42.564;23.164;2023-01-30T17:24:15;-11650.84;;;-142.29;100.00
7748;BME280;3918;42.564;23.164;2023-01-30T17:26:43;-11650.84;;;-142.29;100.00
7748;BME280;3918;42.564;23.164;2023-01-30T17:29:11;-11650.84;;;-142.29;100.00
7748;BME280;3918;42.564;23.164;2023-01-30T17:31:41;-11650.84;;;-142.29;100.00
7748;BME280;3918;42.564;23.164;2023-01-30T17:34:11;-11650.84;;;-142.29;100.00
7748;BME280;3918;42.564;23.164;2023-01-30T17:36:38;-11650.84;;;-142.29;100.00
7748;BME280;3918;42.564;23.164;2023-01-30T17:39:10;-11650.84;;;-142.29;100.00
7748;BME280;3918;42.564;23.164;2023-01-30T17:41:38;-11650.84;;;-142.29;100.00
7748;BME280;3918;42.564;23.164;2023-01-30T17:44:05;-11650.84;;;-142.29;100.00
7748;BME280;3918;42.564;23.164;2023-01-30T17:46:35;-11650.84;;;-142.29;100.00
7748;BME280;3918;42.564;23.164;2023-01-30T17:49:03;-11650.84;;;-142.29;100.00
7748;BME280;3918;42.564;23.164;2023-01-30T17:51:29;-11650.84;;;-142.29;100.00
7748;BME280;3918;42.564;23.164;2023-01-30T17:53:57;-11650.84;;;-142.29;100.00
7748;BME280;3918;42.564;23.164;2023-01-30T17:56:31;-11650.84;;;-142.29;100.00
7748;BME280;3918;42.564;23.164;2023-01-30T17:59:01;-11650.84;;;-142.29;100.00
7748;BME280;3918;42.564;23.164;2023-01-30T18:01:28;-11650.84;;;-142.29;100.00
7748;BME280;3918;42.564;23.164;2023-01-30T18:03:55;-11650.84;;;-142.29;100.00
7748;BME280;3918;42.564;23.164;2023-01-30T18:06:22;-11650.84;;;-142.29;100.00
7748;BME280;3918;42.564;23.164;2023-01-30T18:08:49;-11650.84;;;-142.29;100.00
7748;BME280;3918;42.564;23.164;2023-01-30T18:11:15;-11650.84;;;-142.29;100.00
7748;BME280;3918;42.564;23.164;2023-01-30T18:13:44;-11650.84;;;-142.29;100.00
7748;BME280;3918;42.564;23.164;2023-01-30T18:16:14;-11650.84;;;-142.29;100.00
7748;BME280;3918;42.564;23.164;2023-01-30T18:18:42;-11650.84;;;-142.29;100.00
7748;BME280;3918;42.564;23.164;2023-01-30T18:21:09;-11650.84;;;-142.29;100.00
7748;BME280;3918;42.564;23.164;2023-01-30T18:23:36;-11650.84;;;-142.29;100.00
7748;BME280;3918;42.564;23.164;2023-01-30T18:26:04;-11650.84;;;-142.29;100.00
7748;BME280;3918;42.564;23.164;2023-01-30T18:28:30;-11650.84;;;-142.29;100.00
7748;BME280;3918;42.564;23.164;2023-01-30T18:30:58;-11650.84;;;-142.29;100.00
7748;BME280;3918;42.564;23.164;2023-01-30T18:33:25;-11650.84;;;-142.29;100.00
7748;BME280;3918;42.564;23.164;2023-01-30T18:35:52;-11650.84;;;-142.29;100.00
7748;BME280;3918;42.564;23.164;2023-01-30T18:38:19;-11650.84;;;-142.29;100.00
7748;BME280;3918;42.564;23.164;2023-01-30T18:40:45;-11650.84;;;-142.29;100.00
7748;BME280;3918;42.564;23.164;2023-01-30T18:43:13;-11650.84;;;-142.29;100.00
7748;BME280;3918;42.564;23.164;2023-01-30T18:45:39;-11650.84;;;-142.29;100.00
7748;BME280;3918;42.564;23.164;2023-01-30T18:48:08;-11650.84;;;-142.29;100.00
7748;BME280;3918;42.564;23.164;2023-01-30T18:50:35;-11650.84;;;-142.29;100.00
7748;BME280;3918;42.564;23.164;2023-01-30T18:53:01;-11650.84;;;-142.29;100.00
7748;BME280;3918;42.564;23.164;2023-01-30T18:55:29;-11650.84;;;-142.29;100.00
7748;BME280;3918;42.564;23.164;2023-01-30T18:57:57;-11650.84;;;-142.29;100.00
7748;BME280;3918;42.564;23.164;2023-01-30T19:00:24;-11650.84;;;-142.29;100.00
7748;BME280;3918;42.564;23.164;2023-01-30T19:02:51;-11650.84;;;-142.29;100.00
7748;BME280;3918;42.564;23.164;2023-01-30T19:05:19;-11650.84;;;-142.29;100.00
7748;BME280;3918;42.564;23.164;2023-01-30T19:07:46;-11650.84;;;-142.29;100.00
7748;BME280;3918;42.564;23.164;2023-01-30T19:10:13;-11650.84;;;-142.29;100.00
7748;BME280;3918;42.564;23.164;2023-01-30T19:12:43;-11650.84;;;-142.29;100.00
7748;BME280;3918;42.564;23.164;2023-01-30T19:15:29;-11650.84;;;-142.29;100.00